Time;durP1;ratioP1;P1;durP2;ratioP2;P2;SDS_P1;SDS_P2;PMS_P1;PMS_P2;Temp;Humidity;BMP_temperature;BMP_pressure;BME280_temperature;BME280_humidity;BME280_pressure;Samples;Min_cycle;Max_cycle;Signal;HPM_P1;HPM_P2
2021/07/27 00:01:11;;;;;;;27.40;20.05;;;;;;;22.68;67.03;100146.55;1629925;87;20932;-76
2021/07/27 00:03:39;;;;;;;30.40;22.05;;;;;;;22.65;67.21;100139.50;1642497;87;20996;-76
2021/07/27 00:06:09;;;;;;;32.90;20.68;;;;;;;22.66;67.33;100146.61;1621200;87;21090;-74
2021/07/27 00:08:36;;;;;;;31.00;18.90;;;;;;;22.73;67.28;100140.95;1640705;87;22163;-73
2021/07/27 00:11:08;;;;;;;24.30;18.75;;;;;;;22.77;67.26;100141.11;1640500;85;21296;-71
2021/07/27 00:13:35;;;;;;;33.95;19.98;;;;;;;22.82;67.16;100142.33;1642810;87;21412;-70
2021/07/27 00:16:04;;;;;;;33.92;19.52;;;;;;;22.85;67.14;100129.34;1643399;87;20979;-69
2021/07/27 00:18:31;;;;;;;39.60;21.55;;;;;;;22.89;67.00;100131.67;1637370;87;21032;-70
2021/07/27 00:21:00;;;;;;;27.45;20.35;;;;;;;22.92;66.89;100135.17;1643786;87;21612;-70
2021/07/27 00:23:26;;;;;;;25.48;19.45;;;;;;;22.98;66.78;100132.49;1622494;87;21148;-71
2021/07/27 00:25:53;;;;;;;32.50;21.10;;;;;;;23.03;66.56;100135.89;1611300;88;21043;-70
2021/07/27 00:28:20;;;;;;;29.27;20.00;;;;;;;23.08;66.31;100136.30;1615628;88;21066;-70
2021/07/27 00:30:47;;;;;;;27.90;21.30;;;;;;;23.11;66.22;100139.79;1615884;87;21136;-75
2021/07/27 00:33:13;;;;;;;33.55;21.02;;;;;;;23.16;66.01;100134.70;1600188;88;21044;-73
2021/07/27 00:35:40;;;;;;;31.20;21.68;;;;;;;23.22;65.96;100139.69;1589109;90;21420;-72
2021/07/27 00:38:09;;;;;;;34.27;21.20;;;;;;;23.26;65.92;100141.25;1590829;88;21048;-71
2021/07/27 00:40:40;;;;;;;36.55;22.87;;;;;;;23.25;65.80;100131.39;1595597;88;21055;-71
2021/07/27 00:43:10;;;;;;;32.67;22.27;;;;;;;23.24;65.82;100129.21;1601838;87;21167;-72
2021/07/27 00:45:36;;;;;;;32.42;20.37;;;;;;;23.20;65.99;100124.69;1569509;90;21647;-70
2021/07/27 00:48:04;;;;;;;34.85;25.08;;;;;;;23.09;66.55;100120.64;1590076;88;20980;-70
2021/07/27 00:50:30;;;;;;;38.58;23.45;;;;;;;22.82;67.83;100119.02;1615722;88;21031;-70
2021/07/27 00:52:58;;;;;;;35.13;25.43;;;;;;;22.55;68.96;100120.05;1584393;88;21687;-74
2021/07/27 00:55:26;;;;;;;39.45;24.92;;;;;;;22.32;69.97;100115.78;1610505;88;21516;-72
2021/07/27 00:57:53;;;;;;;41.18;25.20;;;;;;;22.17;70.94;100119.20;1607722;88;21092;-74
2021/07/27 01:00:20;;;;;;;36.40;24.63;;;;;;;22.18;70.64;100118.64;1593806;88;21169;-70
2021/07/27 01:02:47;;;;;;;37.20;21.17;;;;;;;22.21;70.54;100117.99;1606443;88;21548;-69
2021/07/27 01:05:13;;;;;;;34.55;23.30;;;;;;;22.25;70.43;100123.67;1588723;90;21045;-71
2021/07/27 01:07:43;;;;;;;40.43;23.80;;;;;;;22.27;70.33;100118.67;1604602;88;21040;-70
2021/07/27 01:10:12;;;;;;;31.52;22.10;;;;;;;22.29;70.32;100118.61;1615289;88;21044;-68
2021/07/27 01:12:39;;;;;;;33.00;22.32;;;;;;;22.30;70.38;100122.95;1614136;88;21064;-70
2021/07/27 01:15:09;;;;;;;37.28;23.85;;;;;;;22.32;70.44;100124.82;1602032;88;20984;-69
2021/07/27 01:17:36;;;;;;;34.58;23.12;;;;;;;22.34;70.53;100123.14;1603601;88;21086;-68
2021/07/27 01:20:12;;;;;;;41.85;26.62;;;;;;;22.35;70.57;100124.17;1614386;87;21083;-75
2021/07/27 01:39:21;;;;;;;57.50;39.88;;;;;;;21.84;73.34;100120.62;1589813;88;22017;-75
2021/07/27 01:44:03;;;;;;;59.60;37.42;;;;;;;21.79;73.83;100111.73;1590013;88;21076;-76
2021/07/27 01:46:36;;;;;;;47.83;31.17;;;;;;;21.82;73.86;100116.59;1592004;88;21122;-76
2021/07/27 01:49:04;;;;;;;55.98;33.23;;;;;;;21.84;73.80;100116.52;1615562;88;21604;-76
2021/07/27 01:51:35;;;;;;;39.58;27.95;;;;;;;21.83;73.74;100113.52;1593769;88;21920;-76
2021/07/27 01:54:07;;;;;;;37.15;25.00;;;;;;;21.88;73.76;100116.13;1593086;88;21796;-77
2021/07/27 01:56:30;;;;;;;42.65;26.73;;;;;;;21.97;73.33;100119.74;1614569;88;21524;-77
2021/07/27 01:58:57;;;;;;;42.53;24.40;;;;;;;22.01;73.26;100115.28;1615498;88;21067;-77
2021/07/27 02:01:25;;;;;;;42.43;24.92;;;;;;;22.09;73.09;100111.77;1615412;88;21556;-76
2021/07/27 02:03:54;;;;;;;42.60;25.08;;;;;;;22.09;73.21;100111.77;1615601;88;21443;-76
2021/07/27 02:06:21;;;;;;;48.00;27.30;;;;;;;22.12;73.19;100115.78;1615915;87;20988;-77
2021/07/27 02:08:49;;;;;;;44.90;28.20;;;;;;;22.17;72.97;100119.75;1615576;88;21579;-75
2021/07/27 02:11:19;;;;;;;46.55;27.55;;;;;;;22.18;72.90;100118.64;1615496;87;21912;-76
2021/07/27 02:13:46;;;;;;;32.40;22.85;;;;;;;22.17;72.93;100108.23;1589895;88;22203;-77
2021/07/27 02:16:12;;;;;;;46.30;28.60;;;;;;;22.20;72.71;100113.66;1613904;88;21206;-75
2021/07/27 02:18:39;;;;;;;50.40;26.17;;;;;;;22.15;72.75;100115.17;1615420;88;20956;-76
2021/07/27 02:21:05;;;;;;;39.05;23.20;;;;;;;22.13;72.96;100113.30;1615611;87;21037;-76
2021/07/27 02:23:31;;;;;;;48.38;27.42;;;;;;;22.13;73.04;100114.67;1613460;87;21020;-76
2021/07/27 02:26:02;;;;;;;77.78;26.65;;;;;;;22.16;73.12;100120.31;1588980;88;21017;-75
2021/07/27 02:28:28;;;;;;;79.27;27.67;;;;;;;22.12;73.50;100119.34;1608587;88;21864;-76
2021/07/27 02:31:00;;;;;;;89.58;32.48;;;;;;;22.08;73.82;100116.98;1615587;88;21501;-77
2021/07/27 02:33:23;;;;;;;85.35;28.12;;;;;;;21.97;74.30;100116.20;1598910;88;21008;-76
2021/07/27 02:35:50;;;;;;;103.05;26.70;;;;;;;21.89;74.52;100116.94;1613600;88;21084;-76
2021/07/27 02:38:17;;;;;;;89.85;23.95;;;;;;;21.91;74.24;100113.34;1615423;88;21055;-76
2021/07/27 02:40:43;;;;;;;110.48;26.95;;;;;;;21.96;74.12;100120.08;1593794;88;21129;-76
2021/07/27 02:43:10;;;;;;;92.50;30.30;;;;;;;21.97;74.06;100118.37;1592841;88;20996;-77
2021/07/27 02:45:38;;;;;;;70.03;24.98;;;;;;;22.00;74.08;100110.11;1615406;87;22247;-76
2021/07/27 02:48:05;;;;;;;86.42;27.10;;;;;;;22.02;74.10;100108.66;1592249;88;21506;-76
2021/07/27 02:50:40;;;;;;;77.78;27.05;;;;;;;22.03;74.04;100123.16;1615454;88;21068;-76
2021/07/27 02:53:06;;;;;;;83.03;27.52;;;;;;;22.06;74.04;100118.44;1604917;88;21310;-75
2021/07/27 02:55:36;;;;;;;52.98;23.32;;;;;;;22.12;73.93;100117.16;1587528;88;20996;-75
2021/07/27 02:58:02;;;;;;;50.12;19.35;;;;;;;22.19;73.61;100118.89;1615336;87;21059;-75
2021/07/27 03:00:29;;;;;;;37.28;17.57;;;;;;;22.25;73.36;100112.71;1615395;88;21479;-76
2021/07/27 03:02:56;;;;;;;36.68;21.25;;;;;;;22.28;73.20;100114.81;1615265;88;21517;-75
2021/07/27 03:05:22;;;;;;;45.88;22.40;;;;;;;22.29;73.02;100121.35;1636839;87;21208;-76
2021/07/27 03:07:50;;;;;;;42.88;20.68;;;;;;;22.32;72.83;100118.53;1627095;87;21061;-74
2021/07/27 03:10:18;;;;;;;43.08;22.10;;;;;;;22.36;72.60;100114.02;1595882;88;21128;-76
2021/07/27 03:12:52;;;;;;;29.02;19.40;;;;;;;22.38;72.29;100109.85;1595680;88;21106;-77
2021/07/27 03:15:20;;;;;;;31.75;21.42;;;;;;;22.40;72.20;100102.10;1636892;87;21623;-76
2021/07/27 03:17:46;;;;;;;41.45;21.23;;;;;;;22.41;71.87;100100.17;1605367;88;21341;-76
2021/07/27 03:20:15;;;;;;;33.45;18.55;;;;;;;22.36;71.83;100105.80;1593542;88;20981;-75
2021/07/27 03:22:42;;;;;;;40.63;16.12;;;;;;;22.37;71.77;100101.37;1592107;88;21108;-76
2021/07/27 03:25:10;;;;;;;42.23;18.17;;;;;;;22.44;71.52;100103.11;1593527;88;21581;-75
2021/07/27 03:27:36;;;;;;;28.67;17.32;;;;;;;22.55;71.13;100104.97;1593672;88;21036;-76
2021/07/27 03:30:04;;;;;;;29.07;17.60;;;;;;;22.60;70.89;100102.08;1615354;88;21583;-72
2021/07/27 03:32:33;;;;;;;37.80;17.35;;;;;;;22.66;70.68;100106.84;1593757;88;20937;-74
2021/07/27 03:35:00;;;;;;;27.25;18.70;;;;;;;22.72;70.42;100111.09;1593768;88;21106;-74
2021/07/27 03:37:26;;;;;;;29.12;18.32;;;;;;;22.78;70.09;100109.81;1615502;88;21055;-74
2021/07/27 03:39:53;;;;;;;34.38;19.12;;;;;;;22.80;69.95;100116.58;1593725;88;21079;-71
2021/07/27 03:42:19;;;;;;;24.70;18.27;;;;;;;22.85;69.67;100112.88;1593230;88;21059;-73
2021/07/27 03:44:46;;;;;;;32.42;17.40;;;;;;;22.80;69.57;100116.58;1636724;87;20968;-75
2021/07/27 03:47:12;;;;;;;26.93;17.40;;;;;;;22.77;69.66;100119.98;1590109;90;21007;-74
2021/07/27 03:49:39;;;;;;;29.23;17.77;;;;;;;22.82;69.49;100117.09;1603559;88;21544;-74
2021/07/27 03:52:05;;;;;;;27.27;16.25;;;;;;;22.86;69.25;100111.20;1615460;88;21000;-74
2021/07/27 03:54:34;;;;;;;22.70;16.48;;;;;;;22.89;69.08;100108.36;1614193;88;21131;-73
2021/07/27 03:57:03;;;;;;;18.73;14.40;;;;;;;22.94;68.78;100102.16;1614045;89;21120;-74
2021/07/27 03:59:31;;;;;;;26.65;15.43;;;;;;;23.01;68.43;100102.50;1615496;88;21604;-73
2021/07/27 04:01:58;;;;;;;23.67;13.83;;;;;;;23.07;68.00;100103.71;1615391;87;21052;-75
2021/07/27 04:04:26;;;;;;;18.42;13.65;;;;;;;23.09;67.84;100099.50;1614741;87;21089;-73
2021/07/27 04:06:53;;;;;;;16.20;12.93;;;;;;;23.18;67.39;100100.30;1615508;87;21187;-73
2021/07/27 04:09:19;;;;;;;15.83;12.45;;;;;;;23.19;67.22;100099.18;1615532;87;21028;-75
2021/07/27 04:11:47;;;;;;;15.28;13.50;;;;;;;23.19;67.26;100097.00;1614214;88;21004;-74
2021/07/27 04:14:13;;;;;;;16.50;14.63;;;;;;;23.20;67.10;100100.80;1613346;88;21068;-73
2021/07/27 04:16:40;;;;;;;20.70;12.80;;;;;;;23.23;67.15;100097.95;1593621;88;21035;-73
2021/07/27 04:19:07;;;;;;;18.20;13.48;;;;;;;23.29;67.05;100094.73;1593358;88;21968;-71
2021/07/27 04:21:34;;;;;;;18.27;13.53;;;;;;;23.35;66.80;100093.45;1615333;88;21655;-72
2021/07/27 04:24:01;;;;;;;24.77;22.15;;;;;;;23.43;66.47;100095.36;1593340;88;21039;-71
2021/07/27 04:26:29;;;;;;;22.95;19.15;;;;;;;23.45;66.25;100087.63;1592706;88;21028;-71
2021/07/27 04:28:57;;;;;;;20.52;16.52;;;;;;;23.47;66.08;100095.55;1588851;90;21094;-71
2021/07/27 04:31:23;;;;;;;23.22;14.90;;;;;;;23.54;65.88;100097.23;1588481;90;21353;-72
2021/07/27 04:33:49;;;;;;;16.62;12.03;;;;;;;23.58;65.57;100091.89;1581496;88;21081;-71
2021/07/27 04:36:16;;;;;;;22.55;13.22;;;;;;;23.58;65.57;100087.77;1615235;88;21501;-71
2021/07/27 04:38:42;;;;;;;17.20;12.37;;;;;;;23.62;65.44;100087.36;1593638;88;20951;-72
2021/07/27 04:41:11;;;;;;;16.42;12.80;;;;;;;23.66;65.41;100094.62;1593750;88;21095;-71
2021/07/27 04:43:39;;;;;;;16.12;11.95;;;;;;;23.70;65.18;100087.89;1593347;88;21129;-72
2021/07/27 04:46:07;;;;;;;13.15;11.57;;;;;;;23.75;64.93;100088.53;1615419;88;21011;-72
2021/07/27 04:48:33;;;;;;;16.70;11.53;;;;;;;23.80;64.78;100091.66;1593575;88;21063;-72
2021/07/27 04:51:00;;;;;;;20.25;13.22;;;;;;;23.82;64.63;100094.91;1615667;88;21063;-72
2021/07/27 04:53:29;;;;;;;18.48;12.28;;;;;;;23.84;64.60;100095.37;1615106;88;21103;-72
2021/07/27 04:55:58;;;;;;;13.50;11.95;;;;;;;23.84;64.86;100099.48;1590482;89;21108;-72
2021/07/27 04:58:26;;;;;;;17.10;12.58;;;;;;;23.88;64.79;100100.47;1600370;89;20952;-72
2021/07/27 05:00:52;;;;;;;20.77;11.88;;;;;;;23.93;64.76;100092.61;1600379;89;21039;-72
2021/07/27 05:03:20;;;;;;;18.00;11.80;;;;;;;23.96;64.53;100091.37;1599724;89;21072;-72
2021/07/27 05:05:47;;;;;;;22.52;12.37;;;;;;;23.93;64.45;100094.80;1600934;88;21119;-72
2021/07/27 05:08:15;;;;;;;13.55;11.90;;;;;;;23.93;64.30;100096.17;1579109;89;22108;-72
2021/07/27 05:10:42;;;;;;;14.20;10.28;;;;;;;23.96;63.93;100093.31;1579249;89;21016;-71
2021/07/27 05:13:09;;;;;;;18.87;11.08;;;;;;;23.99;63.66;100092.08;1599556;88;21055;-72
2021/07/27 05:15:35;;;;;;;13.85;10.85;;;;;;;24.02;63.33;100085.14;1577898;89;21071;-72
2021/07/27 05:18:02;;;;;;;17.27;11.18;;;;;;;24.07;62.88;100091.83;1574052;91;21068;-73
2021/07/27 05:20:30;;;;;;;17.50;11.90;;;;;;;24.09;62.58;100081.30;1573959;89;21120;-72
2021/07/27 05:22:56;;;;;;;15.58;10.43;;;;;;;24.17;62.37;100081.88;1580915;89;21092;-72
2021/07/27 05:25:22;;;;;;;21.05;11.60;;;;;;;24.25;61.58;100085.95;1600629;88;21556;-71
2021/07/27 05:27:49;;;;;;;14.75;9.25;;;;;;;24.32;61.33;100090.91;1599399;89;21579;-73
2021/07/27 05:30:16;;;;;;;12.37;9.28;;;;;;;24.38;61.24;100089.59;1621652;87;21074;-72
2021/07/27 05:32:43;;;;;;;14.70;9.90;;;;;;;24.46;60.76;100090.70;1600220;89;21160;-71
2021/07/27 05:35:11;;;;;;;13.72;10.15;;;;;;;24.50;60.41;100089.70;1600153;89;21572;-72
2021/07/27 05:37:37;;;;;;;11.35;9.35;;;;;;;24.57;60.27;100087.78;1599453;89;21031;-71
2021/07/27 05:40:05;;;;;;;16.12;10.93;;;;;;;24.66;60.06;100089.91;1600873;89;21015;-72
2021/07/27 05:42:32;;;;;;;13.50;11.00;;;;;;;24.74;59.80;100092.63;1578906;89;21036;-72
2021/07/27 05:44:58;;;;;;;13.10;9.80;;;;;;;24.85;59.45;100097.14;1600443;89;21230;-71
2021/07/27 05:47:25;;;;;;;9.83;8.83;;;;;;;24.91;59.07;100096.41;1585457;89;20956;-71
2021/07/27 05:49:51;;;;;;;10.72;9.08;;;;;;;24.97;58.59;100100.00;1574391;90;21038;-71
2021/07/27 05:52:17;;;;;;;14.50;10.35;;;;;;;25.01;58.40;100094.06;1573916;89;21094;-72
2021/07/27 05:54:45;;;;;;;11.00;8.85;;;;;;;25.08;58.47;100094.31;1575319;89;21501;-72
2021/07/27 05:57:12;;;;;;;11.12;9.98;;;;;;;25.13;58.56;100094.10;1605392;87;21409;-71
2021/07/27 05:59:40;;;;;;;17.98;10.58;;;;;;;25.18;58.37;100093.91;1630689;86;21039;-72
2021/07/27 06:02:09;;;;;;;22.32;9.80;;;;;;;25.22;58.71;100096.81;1608932;88;32485;-71
2021/07/27 06:04:36;;;;;;;14.87;10.35;;;;;;;25.27;58.89;100096.60;1590528;88;21133;-70
2021/07/27 06:07:02;;;;;;;20.45;11.73;;;;;;;25.32;58.39;100094.20;1594041;88;21048;-72
2021/07/27 06:09:29;;;;;;;13.05;9.20;;;;;;;25.35;58.13;100098.46;1615937;88;21223;-70
2021/07/27 06:11:55;;;;;;;19.27;10.50;;;;;;;25.40;57.69;100091.94;1616028;88;21018;-71
2021/07/27 06:14:23;;;;;;;18.25;12.07;;;;;;;25.44;57.39;100084.60;1595024;88;21076;-72
2021/07/27 06:16:50;;;;;;;15.60;10.43;;;;;;;25.49;57.40;100093.46;1615767;87;21025;-72
2021/07/27 06:19:16;;;;;;;18.70;9.63;;;;;;;25.52;57.41;100093.34;1595596;88;21032;-72
2021/07/27 06:21:45;;;;;;;13.43;10.20;;;;;;;25.54;57.31;100089.69;1595479;88;21967;-71
2021/07/27 06:24:12;;;;;;;12.15;10.82;;;;;;;25.58;57.40;100097.53;1615513;88;21007;-71
2021/07/27 06:26:39;;;;;;;13.83;10.15;;;;;;;25.63;57.43;100094.56;1615288;87;21000;-71
2021/07/27 06:29:06;;;;;;;10.70;9.60;;;;;;;25.66;57.49;100096.62;1638868;87;21043;-71
2021/07/27 06:31:32;;;;;;;17.95;10.98;;;;;;;25.70;57.75;100096.20;1612834;88;21131;-71
2021/07/27 06:33:59;;;;;;;16.57;10.78;;;;;;;25.72;58.17;100095.27;1606931;88;21072;-71
2021/07/27 06:36:25;;;;;;;13.25;11.30;;;;;;;25.75;58.47;100087.72;1615886;87;20936;-71
2021/07/27 06:38:51;;;;;;;14.60;12.18;;;;;;;25.81;58.64;100095.17;1595711;88;21512;-71
2021/07/27 06:41:19;;;;;;;12.28;11.18;;;;;;;25.85;58.51;100087.86;1615669;88;20976;-72
2021/07/27 06:43:45;;;;;;;16.20;11.10;;;;;;;25.90;57.85;100087.63;1595841;88;21020;-71
2021/07/27 06:46:12;;;;;;;14.20;12.55;;;;;;;25.95;56.86;100090.95;1615969;88;22181;-71
2021/07/27 06:48:40;;;;;;;13.62;10.48;;;;;;;25.99;57.14;100085.58;1595660;88;21064;-72
2021/07/27 06:51:12;;;;;;;12.00;10.88;;;;;;;26.03;57.07;100081.79;1615222;88;21000;-70
2021/07/27 06:53:39;;;;;;;12.90;11.57;;;;;;;26.11;57.22;100084.20;1595834;88;21596;-71
2021/07/27 06:56:09;;;;;;;12.28;11.00;;;;;;;26.19;56.33;100087.98;1615873;87;21734;-71
2021/07/27 06:58:39;;;;;;;10.75;9.68;;;;;;;26.26;55.23;100088.25;1593659;88;21133;-72
2021/07/27 07:01:08;;;;;;;10.10;9.10;;;;;;;26.35;54.36;100094.45;1607331;88;21566;-73
2021/07/27 07:03:37;;;;;;;14.43;10.90;;;;;;;26.40;53.12;100090.89;1615645;88;20929;-72
2021/07/27 07:06:04;;;;;;;14.70;9.43;;;;;;;26.48;53.04;100098.81;1614816;88;21122;-72
2021/07/27 07:08:30;;;;;;;14.03;9.88;;;;;;;26.55;52.93;100094.91;1615664;88;21028;-72
2021/07/27 07:10:58;;;;;;;12.75;8.85;;;;;;;26.63;52.18;100100.87;1614846;88;21195;-71
2021/07/27 07:13:25;;;;;;;13.70;9.58;;;;;;;26.71;52.22;100090.88;1615377;87;21501;-72
2021/07/27 07:15:53;;;;;;;19.73;9.23;;;;;;;26.77;52.21;100093.02;1615386;87;20968;-71
2021/07/27 07:18:21;;;;;;;10.15;9.25;;;;;;;26.85;52.09;100092.11;1615551;88;21532;-71
2021/07/27 07:20:50;;;;;;;20.02;9.58;;;;;;;26.91;51.83;100100.95;1614398;88;21552;-72
2021/07/27 07:23:18;;;;;;;15.63;9.08;;;;;;;26.96;51.64;100106.23;1593750;88;21549;-72
2021/07/27 07:25:46;;;;;;;13.25;9.45;;;;;;;27.00;51.60;100098.89;1593422;88;20994;-71
2021/07/27 07:28:13;;;;;;;11.08;9.95;;;;;;;27.12;51.56;100096.65;1615473;88;21063;-73
2021/07/27 07:30:40;;;;;;;18.48;10.28;;;;;;;27.24;50.77;100098.00;1592904;88;21076;-72
2021/07/27 07:33:06;;;;;;;10.15;8.68;;;;;;;27.33;50.95;100098.08;1615524;88;21040;-72
2021/07/27 07:35:32;;;;;;;12.65;8.70;;;;;;;27.37;50.55;100099.55;1615298;88;21036;-72
2021/07/27 07:37:59;;;;;;;11.10;9.83;;;;;;;27.37;50.69;100094.59;1615407;88;20921;-72
2021/07/27 07:40:25;;;;;;;10.75;9.65;;;;;;;27.40;50.40;100096.07;1615144;88;20928;-71
2021/07/27 07:42:51;;;;;;;20.12;10.82;;;;;;;27.44;49.97;100091.44;1615250;87;21084;-72
2021/07/27 07:45:18;;;;;;;14.13;9.93;;;;;;;27.52;50.39;100098.83;1636883;87;21200;-71
2021/07/27 07:47:44;;;;;;;25.82;10.08;;;;;;;27.60;50.04;100090.94;1615537;87;22254;-72
2021/07/27 07:50:11;;;;;;;11.83;8.78;;;;;;;27.69;50.15;100086.62;1614694;88;21529;-72
2021/07/27 07:52:37;;;;;;;14.38;9.83;;;;;;;27.78;49.89;100085.07;1615614;88;21052;-72
2021/07/27 07:55:05;;;;;;;24.00;11.38;;;;;;;27.84;49.49;100091.95;1615526;87;21024;-71
2021/07/27 07:57:35;;;;;;;13.62;10.15;;;;;;;27.89;49.00;100088.92;1615437;87;21024;-71
2021/07/27 08:00:05;;;;;;;19.48;10.93;;;;;;;27.94;48.59;100095.00;1614731;88;21099;-72
2021/07/27 08:02:33;;;;;;;14.80;10.68;;;;;;;27.98;48.57;100085.40;1616158;87;21036;-72
2021/07/27 08:04:59;;;;;;;17.07;9.95;;;;;;;28.05;48.76;100077.30;1615402;88;21020;-72
2021/07/27 08:07:27;;;;;;;18.82;10.48;;;;;;;28.12;48.62;100078.88;1615624;88;21044;-72
2021/07/27 08:09:53;;;;;;;14.55;10.15;;;;;;;28.11;48.36;100076.69;1632931;87;21115;-72
2021/07/27 08:12:20;;;;;;;16.23;10.40;;;;;;;28.14;48.41;100077.95;1615484;87;21083;-72
2021/07/27 08:14:47;;;;;;;10.25;8.50;;;;;;;28.23;48.22;100079.95;1598248;88;21149;-72
2021/07/27 08:17:14;;;;;;;21.15;9.48;;;;;;;28.33;47.53;100073.06;1615407;88;21051;-72
2021/07/27 08:19:40;;;;;;;13.70;8.93;;;;;;;28.40;46.51;100072.63;1593817;88;21492;-74
2021/07/27 08:22:07;;;;;;;10.75;8.63;;;;;;;28.49;46.12;100082.15;1615423;87;21063;-72
2021/07/27 08:24:34;;;;;;;20.68;9.18;;;;;;;28.57;45.20;100086.09;1624980;87;21105;-70
2021/07/27 08:27:00;;;;;;;13.88;9.38;;;;;;;28.60;45.05;100078.45;1615212;87;21063;-70
2021/07/27 08:29:26;;;;;;;16.30;9.78;;;;;;;28.63;43.55;100083.25;1615390;88;21107;-71
2021/07/27 08:31:53;;;;;;;11.50;9.03;;;;;;;28.67;43.79;100072.86;1593527;88;21773;-71
2021/07/27 08:34:20;;;;;;;10.80;8.75;;;;;;;28.70;44.13;100082.62;1614927;88;21566;-71
2021/07/27 08:36:46;;;;;;;14.73;8.70;;;;;;;28.77;43.99;100082.02;1636924;86;21573;-72
2021/07/27 08:39:15;;;;;;;22.70;10.00;;;;;;;28.76;44.13;100074.29;1636218;86;20957;-71
2021/07/27 08:41:42;;;;;;;15.35;8.78;;;;;;;28.79;43.73;100079.09;1604725;88;21091;-71
2021/07/27 08:44:17;;;;;;;17.75;9.50;;;;;;;28.84;43.60;100076.03;1558500;88;21051;-72
2021/07/27 08:46:45;;;;;;;10.53;9.18;;;;;;;28.90;44.17;100075.98;1615740;88;21040;-72
2021/07/27 08:49:16;;;;;;;20.32;9.63;;;;;;;29.00;43.86;100066.29;1615468;87;21672;-71
2021/07/27 08:51:43;;;;;;;14.65;9.45;;;;;;;29.11;43.85;100071.48;1617318;87;20961;-72
2021/07/27 08:54:10;;;;;;;13.85;8.88;;;;;;;29.19;43.88;100065.48;1614859;88;21073;-72
2021/07/27 08:56:51;;;;;;;13.22;8.70;;;;;;;29.24;43.54;100063.80;1615463;88;21059;-70
2021/07/27 08:59:18;;;;;;;9.30;8.10;;;;;;;29.31;43.93;100059.80;1615357;88;21677;-70
2021/07/27 09:01:46;;;;;;;8.65;6.85;;;;;;;29.41;43.41;100061.40;1633479;87;21118;-73
2021/07/27 09:04:12;;;;;;;11.93;8.85;;;;;;;29.45;43.46;100063.65;1630037;87;20995;-72
2021/07/27 09:06:39;;;;;;;12.43;8.18;;;;;;;29.52;43.22;100059.42;1593504;88;21043;-73
2021/07/27 09:09:08;;;;;;;15.95;8.48;;;;;;;29.58;42.92;100053.80;1614851;87;20972;-72
2021/07/27 09:11:47;;;;;;;9.83;8.08;;;;;;;29.66;42.10;100050.77;1615199;88;21093;-73
2021/07/27 09:14:16;;;;;;;13.25;8.33;;;;;;;29.76;41.19;100043.81;1614691;88;21546;-72
2021/07/27 09:16:51;;;;;;;10.43;7.92;;;;;;;29.81;40.98;100047.66;1615499;87;21083;-73
2021/07/27 09:19:17;;;;;;;9.00;7.97;;;;;;;29.89;40.00;100048.83;1608228;88;21529;-71
2021/07/27 09:21:43;;;;;;;9.70;6.95;;;;;;;29.97;39.32;100051.73;1611672;87;21009;-71
2021/07/27 09:24:10;;;;;;;7.15;6.28;;;;;;;29.98;38.96;100049.95;1615329;88;21510;-72
2021/07/27 09:26:37;;;;;;;8.98;6.78;;;;;;;30.01;39.18;100056.75;1592102;88;21032;-70
2021/07/27 09:29:04;;;;;;;15.85;8.18;;;;;;;30.03;39.70;100055.78;1612145;87;21536;-69
2021/07/27 09:31:32;;;;;;;9.50;7.97;;;;;;;30.07;39.42;100047.72;1615357;88;21028;-71
2021/07/27 09:34:10;;;;;;;11.38;7.25;;;;;;;30.12;39.48;100048.80;1615319;88;21000;-70
2021/07/27 09:36:36;;;;;;;7.85;7.17;;;;;;;30.21;39.11;100041.05;1614821;87;21076;-72
2021/07/27 09:39:04;;;;;;;10.58;7.75;;;;;;;30.24;39.49;100045.03;1604545;87;21168;-70
2021/07/27 09:41:31;;;;;;;11.90;7.17;;;;;;;30.25;39.43;100046.64;1611654;87;21007;-70
2021/07/27 09:43:59;;;;;;;14.40;8.30;;;;;;;30.29;38.91;100045.52;1601790;88;21119;-71
2021/07/27 09:46:26;;;;;;;12.15;8.23;;;;;;;30.36;39.11;100041.25;1593768;88;21566;-71
2021/07/27 09:48:53;;;;;;;9.38;8.15;;;;;;;30.46;39.41;100035.86;1615394;88;21088;-70
2021/07/27 09:51:20;;;;;;;11.00;8.68;;;;;;;30.59;39.65;100037.84;1613838;88;22220;-70
2021/07/27 09:53:48;;;;;;;13.03;8.93;;;;;;;30.68;39.73;100035.00;1612990;88;21024;-70
2021/07/27 09:56:15;;;;;;;12.47;7.65;;;;;;;30.75;39.76;100028.14;1637052;87;21568;-69
2021/07/27 09:58:41;;;;;;;8.08;6.65;;;;;;;30.87;39.32;100023.52;1638276;87;21524;-69
2021/07/27 10:01:21;;;;;;;14.00;8.60;;;;;;;30.90;39.33;100026.92;1614151;88;20991;-69
2021/07/27 10:03:53;;;;;;;16.42;10.15;;;;;;;30.93;38.99;100024.80;1583809;89;21885;-71
2021/07/27 10:06:26;;;;;;;15.70;7.93;;;;;;;30.96;38.76;100024.84;1590273;88;21009;-72
2021/07/27 10:08:58;;;;;;;7.05;6.35;;;;;;;30.98;38.45;100025.86;1615063;88;21504;-77
2021/07/27 10:11:37;;;;;;;17.73;8.88;;;;;;;31.03;37.86;100015.20;1628496;87;21080;-77
2021/07/27 10:14:15;;;;;;;10.13;7.58;;;;;;;31.05;37.28;100011.48;1615953;88;21517;-73
2021/07/27 10:16:42;;;;;;;11.10;7.47;;;;;;;31.06;37.27;100010.30;1615800;88;21259;-73
2021/07/27 10:19:23;;;;;;;8.45;7.62;;;;;;;31.15;37.12;100012.77;1614009;87;21044;-73
2021/07/27 10:22:05;;;;;;;14.18;8.88;;;;;;;31.21;36.80;100011.84;1620795;87;21580;-72
2021/07/27 10:24:45;;;;;;;11.30;8.50;;;;;;;31.22;36.70;100013.45;1615531;88;21945;-72
2021/07/27 10:27:18;;;;;;;13.75;8.78;;;;;;;31.26;36.57;100002.58;1611419;88;20988;-77
2021/07/27 10:29:43;;;;;;;13.78;8.05;;;;;;;31.35;36.35;100005.84;1600264;88;21343;-73
2021/07/27 10:32:18;;;;;;;7.90;7.03;;;;;;;31.41;36.12;100011.87;1615201;88;21702;-70
2021/07/27 10:34:44;;;;;;;16.95;7.47;;;;;;;31.43;36.46;100013.66;1616866;88;20957;-72
2021/07/27 10:37:16;;;;;;;12.82;7.47;;;;;;;31.44;36.05;100004.14;1616172;87;21011;-74
2021/07/27 10:40:02;;;;;;;10.13;8.95;;;;;;;31.47;36.10;100000.58;1616443;88;21012;-77
2021/07/27 10:42:39;;;;;;;16.70;7.87;;;;;;;31.51;35.92;99999.44;1580949;90;21225;-78
2021/07/27 10:45:17;;;;;;;12.68;8.53;;;;;;;31.57;35.82;99997.94;1570259;90;21006;-81
2021/07/27 10:47:51;;;;;;;27.00;9.78;;;;;;;31.62;35.54;99991.81;1593648;88;21640;-75
2021/07/27 10:50:17;;;;;;;11.97;8.30;;;;;;;31.65;35.88;99995.23;1591023;90;21012;-71
2021/07/27 10:52:44;;;;;;;11.60;8.45;;;;;;;31.71;35.78;99988.11;1617081;88;20909;-74
2021/07/27 10:55:12;;;;;;;21.07;11.10;;;;;;;31.79;35.61;100003.70;1616768;87;21025;-75
2021/07/27 10:57:47;;;;;;;11.38;9.05;;;;;;;31.81;35.62;99996.55;1616451;88;21579;-75
2021/07/27 11:00:16;;;;;;;13.72;8.45;;;;;;;31.77;35.25;99987.97;1587793;88;20957;-74
2021/07/27 11:02:42;;;;;;;11.48;8.63;;;;;;;31.78;35.22;99984.81;1589839;88;21485;-74
2021/07/27 11:05:09;;;;;;;16.48;8.93;;;;;;;31.87;35.37;99984.48;1590103;88;20968;-74
2021/07/27 11:07:35;;;;;;;8.93;7.55;;;;;;;31.93;35.32;99981.55;1586903;88;21814;-73
2021/07/27 11:10:04;;;;;;;15.83;10.05;;;;;;;31.95;35.13;99981.95;1616437;88;21031;-72
2021/07/27 11:12:38;;;;;;;20.27;9.13;;;;;;;31.98;35.13;99978.41;1616463;88;20996;-76
2021/07/27 11:15:11;;;;;;;10.03;8.38;;;;;;;31.97;35.22;99974.83;1596279;88;20928;-74
2021/07/27 11:17:46;;;;;;;18.47;8.00;;;;;;;32.03;35.39;99966.91;1595912;88;21011;-72
2021/07/27 11:20:16;;;;;;;11.83;9.23;;;;;;;32.02;35.22;99980.03;1616552;88;21005;-73
2021/07/27 11:22:51;;;;;;;15.25;12.75;;;;;;;31.97;35.22;99966.48;1590807;88;20908;-70
2021/07/27 11:25:19;;;;;;;11.63;8.90;;;;;;;31.97;35.09;99977.61;1593092;88;21622;-71
2021/07/27 11:27:46;;;;;;;9.30;8.40;;;;;;;31.97;34.97;99972.63;1616444;88;20924;-76
2021/07/27 11:30:13;;;;;;;16.30;7.75;;;;;;;32.03;34.73;99971.09;1596163;88;21120;-71
2021/07/27 11:32:46;;;;;;;13.32;7.33;;;;;;;32.11;34.45;99961.63;1590995;88;22271;-72
2021/07/27 11:35:18;;;;;;;11.50;9.40;;;;;;;32.19;34.41;99961.06;1591203;88;21422;-71
2021/07/27 11:37:45;;;;;;;9.60;7.05;;;;;;;32.30;34.15;99959.95;1616494;88;20951;-71